Time;durP1;ratioP1;P1;durP2;ratioP2;P2;SDS_P1;SDS_P2;PMS_P1;PMS_P2;Temp;Humidity;BMP_temperature;BMP_pressure;BME280_temperature;BME280_humidity;BME280_pressure;Samples;Min_cycle;Max_cycle;Signal;HPM_P1;HPM_P2
2023/06/23 00:00:27;;;;;;;;;12.00;12.00;;;;;22.10;83.05;101490.91;6218848;22;45435;-79
2023/06/23 00:02:53;;;;;;;;;9.33;8.67;;;;;22.09;83.06;101491.81;6218238;22;45633;-79
2023/06/23 00:05:18;;;;;;;;;9.33;7.33;;;;;22.10;82.50;101488.22;6220541;22;45473;-79
2023/06/23 00:07:44;;;;;;;;;9.00;9.00;;;;;22.04;81.57;101489.22;6219713;22;45806;-79
2023/06/23 00:10:10;;;;;;;;;11.67;10.33;;;;;22.10;83.17;101493.63;6220015;22;44788;-79
2023/06/23 00:12:41;;;;;;;;;6.00;6.00;;;;;22.12;82.64;101487.25;6219914;22;45578;-79
2023/06/23 00:15:07;;;;;;;;;8.33;7.33;;;;;22.07;82.81;101490.97;6191502;22;46806;-78
2023/06/23 00:17:33;;;;;;;;;9.33;8.00;;;;;22.04;83.20;101494.66;6219367;22;45517;-78
2023/06/23 00:19:59;;;;;;;;;10.00;9.00;;;;;22.04;83.56;101494.66;6193543;22;45412;-79
2023/06/23 00:22:25;;;;;;;;;11.00;11.00;;;;;22.02;83.21;101499.19;6220719;22;44735;-79
2023/06/23 00:24:52;;;;;;;;;6.67;6.67;;;;;22.07;83.13;101502.69;6220561;22;45434;-79
2023/06/23 00:27:17;;;;;;;;;8.00;8.00;;;;;21.92;82.75;101497.63;6218679;22;44734;-79
2023/06/23 00:29:42;;;;;;;;;8.67;8.67;;;;;21.86;83.68;101490.50;6217055;22;45359;-79
2023/06/23 00:32:08;;;;;;;;;9.33;9.33;;;;;21.83;82.49;101487.84;6220574;22;45665;-80
2023/06/23 00:34:33;;;;;;;;;11.67;11.67;;;;;21.78;84.10;101487.06;6217942;22;46916;-80
2023/06/23 00:37:00;;;;;;;;;10.00;10.00;;;;;21.86;84.80;101492.34;6216465;22;47121;-79
2023/06/23 00:39:25;;;;;;;;;8.33;8.33;;;;;21.68;85.59;101488.19;6219861;22;45769;-79
2023/06/23 00:41:50;;;;;;;;;10.33;10.33;;;;;21.65;85.68;101483.69;6219442;22;45356;-78
2023/06/23 00:44:16;;;;;;;;;7.67;7.33;;;;;21.62;85.95;101486.47;6217564;22;45344;-78
2023/06/23 00:46:43;;;;;;;;;8.00;8.00;;;;;21.51;87.00;101477.66;6218685;22;45483;-79
2023/06/23 00:49:14;;;;;;;;;12.00;12.00;;;;;21.53;87.29;101484.84;6220085;22;45393;-79
2023/06/23 00:51:40;;;;;;;;;11.33;11.00;;;;;21.37;87.00;101489.63;6218372;22;45304;-78
2023/06/23 00:54:07;;;;;;;;;12.00;11.33;;;;;21.34;88.12;101492.38;6219397;22;45022;-79
2023/06/23 00:56:33;;;;;;;;;11.00;10.00;;;;;21.24;88.69;101493.47;6220786;22;45518;-78
2023/06/23 00:58:58;;;;;;;;;10.00;10.00;;;;;21.16;88.86;101498.13;6221154;22;45302;-78
2023/06/23 01:01:25;;;;;;;;;11.67;9.00;;;;;21.22;89.80;101498.03;6219018;22;44896;-77
2023/06/23 01:03:51;;;;;;;;;10.67;9.00;;;;;21.10;90.00;101490.13;6215761;22;45366;-77
2023/06/23 01:06:52;;;;;;;;;11.00;9.00;;;;;21.23;90.13;101491.72;6188404;22;45731;-76
2023/06/23 01:09:49;;;;;;;;;12.00;10.00;;;;;21.22;90.55;101506.13;6189285;22;45358;-77
2023/06/23 01:12:36;;;;;;;;;9.33;9.33;;;;;21.10;90.69;101507.25;6216764;22;45240;-78
2023/06/23 01:15:15;;;;;;;;;10.00;10.00;;;;;21.09;91.07;101501.88;6214561;22;47682;-77
2023/06/23 01:18:22;;;;;;;;;11.33;11.33;;;;;21.06;91.11;101499.22;6215993;22;45460;-77
2023/06/23 01:20:49;;;;;;;;;10.67;10.67;;;;;20.86;92.02;101503.13;6122782;23;45767;-77
2023/06/23 01:23:20;;;;;;;;;11.67;10.67;;;;;20.84;92.07;101507.69;6124106;23;45571;-77
2023/06/23 01:26:30;;;;;;;;;9.00;9.00;;;;;20.96;92.08;101510.19;6124343;23;45426;-77
2023/06/23 01:29:00;;;;;;;;;10.00;10.00;;;;;20.85;93.06;101506.78;6093939;23;45282;-77
2023/06/23 01:31:44;;;;;;;;;10.00;10.00;;;;;20.90;92.96;101515.69;6095211;23;45372;-77
2023/06/23 01:34:15;;;;;;;;;11.67;11.00;;;;;20.71;93.10;101515.09;6070249;23;45490;-77
2023/06/23 01:36:49;;;;;;;;;10.33;9.00;;;;;20.83;93.43;101524.84;6093769;23;45332;-77
2023/06/23 01:39:18;;;;;;;;;10.33;10.33;;;;;20.78;93.53;101514.09;6094696;23;45397;-77
2023/06/23 01:41:52;;;;;;;;;11.00;11.00;;;;;20.82;93.94;101523.03;6069004;23;45676;-77
2023/06/23 01:44:22;;;;;;;;;12.33;11.00;;;;;20.77;94.13;101524.94;6069654;23;45627;-77
2023/06/23 01:46:53;;;;;;;;;12.67;9.33;;;;;20.78;93.65;101522.22;6069485;23;46841;-77
2023/06/23 01:49:24;;;;;;;;;10.67;9.33;;;;;20.78;94.00;101527.63;6093783;23;45789;-77
2023/06/23 01:51:52;;;;;;;;;9.67;8.33;;;;;20.74;93.37;101530.38;6095157;23;45429;-77
2023/06/23 01:54:19;;;;;;;;;11.33;10.00;;;;;20.71;93.36;101519.63;6089618;23;45605;-77
2023/06/23 01:56:47;;;;;;;;;12.33;10.33;;;;;20.71;93.90;101530.44;6153783;23;45343;-77
2023/06/23 01:59:13;;;;;;;;;11.67;10.67;;;;;20.68;93.79;101538.56;6154164;23;45432;-77
2023/06/23 02:01:42;;;;;;;;;10.67;10.67;;;;;20.67;93.76;101540.41;6157379;22;45361;-77
2023/06/23 02:04:09;;;;;;;;;12.67;10.67;;;;;20.62;93.51;101538.66;6217904;22;45690;-77
2023/06/23 02:06:37;;;;;;;;;10.00;10.00;;;;;20.63;93.57;101543.19;6213837;22;46252;-77
2023/06/23 02:09:08;;;;;;;;;8.67;8.67;;;;;20.65;93.45;101541.34;6188176;22;45518;-77
2023/06/23 02:11:35;;;;;;;;;8.33;8.33;;;;;20.55;93.96;101538.72;6215795;22;45394;-77
2023/06/23 02:14:02;;;;;;;;;11.67;9.67;;;;;20.54;93.86;101539.66;6215883;22;45396;-77
2023/06/23 02:16:31;;;;;;;;;8.33;8.33;;;;;20.55;93.64;101532.44;6214478;22;46441;-77
2023/06/23 02:18:58;;;;;;;;;9.33;8.00;;;;;20.54;94.15;101542.38;6187855;22;45348;-77
2023/06/23 02:21:26;;;;;;;;;9.00;9.00;;;;;20.47;94.17;101540.66;6214016;22;44797;-76
2023/06/23 02:23:52;;;;;;;;;8.67;8.67;;;;;20.44;94.05;101547.91;6214719;22;45386;-77
2023/06/23 02:26:19;;;;;;;;;8.67;7.00;;;;;20.50;94.23;101554.13;6187228;22;47430;-77
2023/06/23 02:28:49;;;;;;;;;9.67;7.00;;;;;20.45;93.16;101541.59;6214622;22;45290;-77
2023/06/23 02:31:22;;;;;;;;;11.00;10.00;;;;;20.50;93.23;101548.72;6214747;22;45443;-77
2023/06/23 02:33:48;;;;;;;;;8.33;7.33;;;;;20.39;93.58;101542.56;6215371;22;45315;-77
2023/06/23 02:36:19;;;;;;;;;11.67;9.00;;;;;20.47;93.54;101548.75;6188109;22;46124;-76
2023/06/23 02:38:47;;;;;;;;;12.00;10.00;;;;;20.34;93.62;101552.53;6215857;22;44827;-77
2023/06/23 02:41:14;;;;;;;;;8.33;8.00;;;;;20.37;93.78;101557.91;6215444;22;45338;-77
2023/06/23 02:43:54;;;;;;;;;8.33;7.67;;;;;20.45;93.86;101553.28;6215796;22;45443;-77
2023/06/23 02:46:22;;;;;;;;;10.33;9.00;;;;;20.36;93.68;101556.13;6215607;22;45263;-76
2023/06/23 02:48:51;;;;;;;;;8.67;8.67;;;;;20.34;93.77;101555.22;6215002;22;45446;-77
2023/06/23 02:51:20;;;;;;;;;12.67;11.33;;;;;20.36;94.02;101561.53;6215155;22;45421;-77
2023/06/23 02:53:54;;;;;;;;;9.33;9.00;;;;;20.35;93.88;101571.44;6215699;22;45315;-77
2023/06/23 02:56:25;;;;;;;;;10.67;10.33;;;;;20.35;94.07;101574.13;6215256;22;45415;-77
2023/06/23 02:58:58;;;;;;;;;9.67;9.67;;;;;20.37;94.39;101575.00;6213461;22;45374;-77
2023/06/23 03:01:26;;;;;;;;;8.00;7.00;;;;;20.27;93.84;101572.44;6216642;22;45691;-77
2023/06/23 03:03:52;;;;;;;;;9.33;8.33;;;;;20.24;93.90;101575.19;6216475;22;44872;-77
2023/06/23 03:06:22;;;;;;;;;10.00;8.33;;;;;20.32;94.14;101575.97;6214672;22;46574;-78
2023/06/23 03:08:47;;;;;;;;;9.00;9.00;;;;;20.17;94.44;101580.66;6216791;22;45389;-77
2023/06/23 03:11:16;;;;;;;;;10.00;10.00;;;;;20.26;94.75;101584.16;6214810;22;45416;-77
2023/06/23 03:13:43;;;;;;;;;11.00;10.00;;;;;20.16;94.58;101572.59;6216906;22;45395;-77
2023/06/23 03:16:13;;;;;;;;;11.33;8.67;;;;;20.26;94.65;101570.66;6189656;22;46933;-77
2023/06/23 03:18:46;;;;;;;;;8.33;8.33;;;;;20.23;94.82;101571.59;6216214;22;45385;-77
2023/06/23 03:21:13;;;;;;;;;10.00;9.00;;;;;20.11;94.91;101569.03;6217565;22;45740;-77
2023/06/23 03:23:39;;;;;;;;;10.00;9.00;;;;;20.08;94.80;101572.69;6217865;22;45619;-77
2023/06/23 03:26:08;;;;;;;;;8.67;8.67;;;;;20.14;95.33;101564.50;6215218;22;47187;-77
2023/06/23 03:28:36;;;;;;;;;12.67;11.33;;;;;20.10;95.33;101572.69;6214370;22;45424;-77
2023/06/23 03:31:12;;;;;;;;;17.33;12.00;;;;;20.21;95.04;101568.00;6216308;22;45391;-77
2023/06/23 03:33:41;;;;;;;;;11.67;9.00;;;;;20.13;94.76;101576.22;6216676;22;45328;-77
2023/06/23 03:36:30;;;;;;;;;11.00;11.00;;;;;20.14;95.28;101588.81;6215759;22;45460;-77
2023/06/23 03:39:15;;;;;;;;;9.67;9.33;;;;;20.12;95.47;101589.75;6188737;22;45388;-77
2023/06/23 03:41:42;;;;;;;;;9.67;9.67;;;;;20.01;95.48;101594.38;6215905;22;45408;-77
2023/06/23 03:44:12;;;;;;;;;10.00;10.00;;;;;19.95;95.56;101598.91;6215368;22;45585;-77
2023/06/23 03:46:44;;;;;;;;;13.33;10.33;;;;;19.92;95.46;101603.47;6215025;22;45795;-77
2023/06/23 03:49:12;;;;;;;;;9.67;7.00;;;;;19.88;95.81;101599.91;6216076;22;45546;-77
2023/06/23 03:51:42;;;;;;;;;12.67;12.67;;;;;19.93;96.50;101607.94;6216647;22;45381;-77
2023/06/23 03:54:09;;;;;;;;;9.00;9.00;;;;;19.89;96.32;101603.50;6214248;22;45441;-77
2023/06/23 03:56:37;;;;;;;;;11.00;10.67;;;;;19.90;96.58;101595.38;6214062;22;46537;-77
2023/06/23 03:59:06;;;;;;;;;10.00;9.33;;;;;19.92;96.95;101592.69;6213835;22;45043;-76
2023/06/23 04:01:34;;;;;;;;;8.33;8.00;;;;;19.89;96.52;101593.59;6216175;22;45307;-77
2023/06/23 04:04:03;;;;;;;;;12.00;10.33;;;;;19.93;96.58;101602.53;6215751;22;45669;-77
2023/06/23 04:06:30;;;;;;;;;8.00;8.00;;;;;19.92;97.00;101598.06;6187799;22;45376;-77
2023/06/23 04:08:58;;;;;;;;;11.00;11.00;;;;;19.95;97.12;101604.31;6214198;22;45404;-77
2023/06/23 04:11:25;;;;;;;;;9.67;9.67;;;;;19.87;96.11;101617.00;6215828;22;45371;-77
2023/06/23 04:13:54;;;;;;;;;8.00;8.00;;;;;19.86;97.16;101617.94;6216236;22;45334;-78
2023/06/23 04:16:22;;;;;;;;;10.00;8.33;;;;;19.88;97.54;101616.09;6213050;22;46299;-77
2023/06/23 04:18:56;;;;;;;;;7.00;7.00;;;;;19.98;97.39;101633.09;6215593;22;45353;-78
2023/06/23 04:21:23;;;;;;;;;9.33;9.33;;;;;19.97;97.69;101640.28;6213212;22;45358;-77
2023/06/23 04:23:51;;;;;;;;;10.00;9.67;;;;;20.01;97.64;101624.97;6187985;22;45358;-78
2023/06/23 04:26:17;;;;;;;;;8.00;8.00;;;;;20.01;98.02;101627.66;6214038;22;45377;-77
2023/06/23 04:28:43;;;;;;;;;10.00;10.00;;;;;20.07;97.92;101635.69;6212961;22;45386;-76
2023/06/23 04:31:17;;;;;;;;;9.33;7.33;;;;;20.17;97.87;101637.38;6214895;22;45336;-77
2023/06/23 04:33:42;;;;;;;;;6.67;6.67;;;;;20.28;97.47;101634.56;6212868;22;45362;-76
2023/06/23 04:36:18;;;;;;;;;12.67;10.00;;;;;20.49;97.43;101622.59;6213166;22;46575;-76
2023/06/23 04:38:52;;;;;;;;;9.33;9.00;;;;;20.70;96.44;101626.88;6211737;22;45426;-77
2023/06/23 04:41:21;;;;;;;;;7.67;6.67;;;;;20.75;95.41;101624.09;6214581;22;45779;-77
2023/06/23 04:43:51;;;;;;;;;9.33;8.00;;;;;20.92;94.85;101635.53;6187496;22;45410;-77
2023/06/23 04:46:36;;;;;;;;;6.67;6.67;;;;;21.01;94.59;101636.34;6215104;22;45399;-77
2023/06/23 04:49:10;;;;;;;;;3.33;3.33;;;;;21.08;94.22;101644.31;6212644;22;45431;-77
2023/06/23 04:51:50;;;;;;;;;6.67;5.33;;;;;21.20;93.20;101653.19;6216625;22;45433;-77
2023/06/23 04:54:21;;;;;;;;;7.00;7.00;;;;;21.25;92.48;101656.69;6214525;22;45403;-76
2023/06/23 04:56:50;;;;;;;;;6.00;6.00;;;;;21.34;92.17;101661.97;6214102;22;45169;-77
2023/06/23 04:59:20;;;;;;;;;7.00;6.00;;;;;21.41;92.12;101657.34;6213690;22;45257;-77
2023/06/23 05:01:47;;;;;;;;;6.00;6.00;;;;;21.48;91.82;101659.97;6215676;22;45474;-77
2023/06/23 05:04:14;;;;;;;;;8.67;8.67;;;;;21.69;90.72;101657.81;6217156;22;45359;-77
2023/06/23 05:06:42;;;;;;;;;8.67;8.67;;;;;21.72;90.31;101653.22;6216210;22;46153;-77
2023/06/23 05:09:10;;;;;;;;;6.33;6.33;;;;;21.76;89.90;101657.69;6215366;22;45695;-77
2023/06/23 05:11:38;;;;;;;;;8.00;7.00;;;;;21.80;88.61;101660.34;6187649;22;45380;-77
2023/06/23 05:14:06;;;;;;;;;8.33;6.67;;;;;21.86;88.50;101669.25;6188619;22;45420;-77
2023/06/23 05:16:33;;;;;;;;;8.33;6.33;;;;;21.83;89.00;101668.41;6216041;22;45398;-77
2023/06/23 05:19:00;;;;;;;;;7.00;6.00;;;;;21.91;89.20;101674.56;6215612;22;45362;-77
2023/06/23 05:21:29;;;;;;;;;5.33;5.33;;;;;22.07;86.15;101676.06;6187687;22;45412;-78
2023/06/23 05:23:57;;;;;;;;;7.33;7.00;;;;;22.07;87.85;101670.66;6190326;22;45392;-77
2023/06/23 05:26:33;;;;;;;;;8.00;8.00;;;;;22.15;87.66;101678.63;6216327;22;46224;-77
2023/06/23 05:29:00;;;;;;;;;10.00;8.67;;;;;22.16;86.71;101684.03;6211533;22;45364;-77
2023/06/23 05:31:29;;;;;;;;;10.00;8.00;;;;;22.25;86.81;101676.69;6216563;22;45336;-77
2023/06/23 05:33:56;;;;;;;;;9.00;8.00;;;;;22.27;85.21;101666.69;6217198;22;45346;-77
2023/06/23 05:36:22;;;;;;;;;7.33;6.33;;;;;22.22;85.94;101679.41;6216637;22;46040;-77
2023/06/23 05:38:50;;;;;;;;;5.67;5.33;;;;;22.35;85.85;101686.41;6190005;22;45051;-77
2023/06/23 05:41:16;;;;;;;;;7.00;7.00;;;;;22.43;86.08;101684.44;6187445;22;45460;-76
2023/06/23 05:43:41;;;;;;;;;5.67;5.67;;;;;22.64;85.61;101688.50;6214847;22;45308;-77
2023/06/23 05:46:12;;;;;;;;;6.67;6.00;;;;;22.92;84.71;101671.66;6216286;22;46350;-77
2023/06/23 05:48:56;;;;;;;;;8.33;8.00;;;;;23.15;83.31;101680.19;6216783;22;45423;-77
2023/06/23 05:51:25;;;;;;;;;12.67;11.00;;;;;23.16;83.52;101671.13;6216485;22;45335;-77
2023/06/23 05:53:57;;;;;;;;;7.00;7.00;;;;;23.32;83.44;101674.34;6217191;22;45382;-77
2023/06/23 05:56:29;;;;;;;;;8.67;7.00;;;;;23.38;82.01;101680.59;6218166;22;45487;-77
2023/06/23 05:58:59;;;;;;;;;7.33;5.67;;;;;23.43;82.37;101682.25;6218296;22;45366;-77
2023/06/23 06:01:29;;;;;;;;;11.33;11.33;;;;;23.46;81.31;101684.88;6217046;22;45420;-77
2023/06/23 06:04:04;;;;;;;;;8.67;8.67;;;;;23.63;81.23;101683.56;6216439;22;45389;-77
2023/06/23 06:09:53;;;;;;;;;9.33;8.67;;;;;23.83;80.05;101693.97;6217528;22;45429;-76
2023/06/23 06:12:24;;;;;;;;;7.00;7.00;;;;;23.92;75.82;101699.16;6187480;22;45736;-77
2023/06/23 06:14:51;;;;;;;;;7.67;6.67;;;;;23.88;77.81;101701.06;6213206;22;45323;-77
2023/06/23 06:17:18;;;;;;;;;9.00;9.00;;;;;23.73;77.18;101691.47;6187147;22;47118;-77
2023/06/23 06:19:45;;;;;;;;;8.67;8.67;;;;;23.74;77.66;101687.81;6188977;22;45412;-77
2023/06/23 06:22:12;;;;;;;;;7.00;7.00;;;;;23.73;77.21;101683.31;6214733;22;45566;-81
2023/06/23 06:24:39;;;;;;;;;9.00;9.00;;;;;23.74;74.07;101695.06;6219849;22;45416;-79
2023/06/23 06:27:08;;;;;;;;;6.33;6.33;;;;;23.54;75.16;101692.84;6219483;22;45445;-79
2023/06/23 06:29:36;;;;;;;;;7.33;7.33;;;;;23.43;76.22;101697.63;6218543;22;45319;-79
2023/06/23 06:32:05;;;;;;;;;8.00;7.67;;;;;23.25;77.59;101686.31;6222710;22;45425;-80
2023/06/23 06:34:33;;;;;;;;;10.67;9.00;;;;;23.30;78.66;101699.75;6275490;22;45336;-80
2023/06/23 06:37:03;;;;;;;;;9.00;8.00;;;;;23.44;78.02;101702.16;6273798;22;45774;-79
2023/06/23 06:39:30;;;;;;;;;8.00;7.00;;;;;23.54;78.75;101688.31;6248055;22;45386;-81
2023/06/23 06:42:02;;;;;;;;;6.33;6.33;;;;;23.92;77.51;101704.59;6251117;22;45349;-82
2023/06/23 06:44:27;;;;;;;;;6.67;6.67;;;;;23.90;77.09;101691.03;6254053;22;45435;-81
2023/06/23 06:46:54;;;;;;;;;6.00;6.00;;;;;24.12;77.86;101698.63;6254011;22;45294;-81
2023/06/23 06:49:22;;;;;;;;;7.00;5.33;;;;;24.34;75.18;101694.38;6253464;22;46003;-80
2023/06/23 06:51:49;;;;;;;;;9.00;9.00;;;;;24.42;75.73;101687.81;6252659;22;45384;-80
2023/06/23 06:54:18;;;;;;;;;10.33;8.33;;;;;24.69;76.61;101695.22;6253891;22;45455;-80
2023/06/23 06:56:59;;;;;;;;;8.00;8.00;;;;;24.65;76.00;101687.19;6250261;22;47032;-80
2023/06/23 06:59:24;;;;;;;;;6.33;5.67;;;;;24.79;75.57;101697.69;6250345;22;45384;-80
2023/06/23 07:02:06;;;;;;;;;6.67;6.67;;;;;24.92;73.83;101699.94;6250414;22;45436;-81
2023/06/23 07:04:33;;;;;;;;;9.00;9.00;;;;;24.90;75.43;101695.50;6250039;22;45437;-81
2023/06/23 07:07:15;;;;;;;;;9.33;8.00;;;;;24.86;74.07;101700.13;6249893;22;45743;-81
2023/06/23 07:09:42;;;;;;;;;11.00;10.33;;;;;25.03;74.27;101693.31;6253228;22;45520;-81
2023/06/23 07:12:08;;;;;;;;;12.00;10.33;;;;;25.13;73.78;101686.66;6252279;22;45366;-81
2023/06/23 07:14:35;;;;;;;;;9.33;7.67;;;;;25.24;74.48;101679.03;6251775;22;45567;-80
2023/06/23 07:17:00;;;;;;;;;10.00;10.00;;;;;25.35;73.69;101676.00;6249582;22;47377;-82
2023/06/23 07:19:26;;;;;;;;;15.67;12.67;;;;;25.48;71.32;101681.91;6251030;22;45698;-81
2023/06/23 07:21:51;;;;;;;;;5.00;5.00;;;;;25.37;70.76;101667.75;6275808;22;45551;-82
2023/06/23 07:24:16;;;;;;;;;9.67;7.67;;;;;25.45;73.67;101671.09;6251323;22;45665;-81
2023/06/23 07:27:02;;;;;;;;;9.00;9.00;;;;;25.58;72.25;101661.59;6253194;22;46698;-83
2023/06/23 07:29:58;;;;;;;;;8.33;8.33;;;;;25.89;69.77;101682.31;6249466;22;45495;-81
2023/06/23 07:32:24;;;;;;;;;6.67;6.67;;;;;25.65;67.50;101654.09;6191120;23;45366;-79
2023/06/23 07:35:19;;;;;;;;;;;;;;;;;;;;;
2023/06/23 07:37:59;;;;;;;;;9.33;8.00;;;;;25.91;67.74;101654.09;6186694;23;75526;-80
2023/06/23 07:40:37;;;;;;;;;6.33;6.33;;;;;25.90;67.05;101673.25;6187104;23;45383;-81
2023/06/23 07:43:03;;;;;;;;;11.00;9.33;;;;;25.65;69.58;101679.53;6189953;23;45049;-80
2023/06/23 07:45:28;;;;;;;;;6.00;6.00;;;;;25.80;69.06;101689.00;6187675;23;45290;-80
2023/06/23 07:47:56;;;;;;;;;7.00;7.00;;;;;25.93;69.58;101663.13;6188795;23;45379;-80
2023/06/23 07:50:57;;;;;;;;;7.67;7.67;;;;;26.29;69.19;101670.03;6188508;23;45493;-81
2023/06/23 07:53:46;;;;;;;;;9.00;8.00;;;;;26.57;69.03;101691.72;6186762;23;45321;-81
2023/06/23 07:56:21;;;;;;;;;7.33;6.00;;;;;26.60;67.67;101685.28;6181719;23;45458;-82
2023/06/23 07:59:10;;;;;;;;;5.67;5.33;;;;;26.99;67.75;101701.06;6187487;23;46024;-81
2023/06/23 08:01:35;;;;;;;;;10.67;10.67;;;;;26.80;67.44;101679.94;6125929;23;45394;-81
2023/06/23 08:04:01;;;;;;;;;8.67;7.67;;;;;26.95;66.36;101692.09;6100518;23;44865;-80
2023/06/23 08:06:38;;;;;;;;;7.67;7.67;;;;;27.15;66.00;101707.69;6160385;23;45316;-79
2023/06/23 08:09:06;;;;;;;;;8.00;7.00;;;;;27.15;65.74;101691.31;6189652;22;48056;-81
2023/06/23 08:11:32;;;;;;;;;8.33;8.33;;;;;27.23;66.15;101718.28;6251624;22;45378;-80
2023/06/23 08:14:00;;;;;;;;;7.33;6.00;;;;;27.41;64.83;101716.69;6250937;22;45445;-80
2023/06/23 08:16:27;;;;;;;;;7.67;7.67;;;;;27.48;64.13;101702.72;6254017;22;45298;-80
2023/06/23 08:19:45;;;;;;;;;;;;;;;;;;;;;
2023/06/23 08:22:47;;;;;;;;;10.00;8.00;;;;;27.82;63.81;101727.75;6189495;23;71390;-80
2023/06/23 08:25:19;;;;;;;;;6.00;6.00;;;;;27.57;63.07;101696.00;6205741;22;45346;-79
2023/06/23 08:28:13;;;;;;;;;8.67;6.67;;;;;27.82;63.58;101733.22;6251309;22;45373;-80
2023/06/23 08:30:42;;;;;;;;;9.33;8.33;;;;;27.90;62.68;101729.25;6241839;22;46561;-80
2023/06/23 08:33:09;;;;;;;;;11.33;9.33;;;;;27.86;62.87;101729.41;6226412;22;45267;-79
2023/06/23 08:35:44;;;;;;;;;8.67;8.33;;;;;27.91;62.75;101695.50;6224496;22;44812;-79
2023/06/23 08:38:24;;;;;;;;;5.67;5.67;;;;;27.95;63.24;101734.50;6225786;22;45322;-80
2023/06/23 08:40:57;;;;;;;;;9.67;7.33;;;;;28.09;62.27;101734.78;6199161;22;45924;-81
2023/06/23 08:43:26;;;;;;;;;9.67;9.33;;;;;28.00;62.33;101732.47;6202013;22;45643;-79
2023/06/23 08:46:05;;;;;;;;;10.67;10.67;;;;;28.22;61.36;101736.97;6220016;22;45439;-80
2023/06/23 08:48:31;;;;;;;;;22.00;21.00;;;;;28.05;61.08;101735.88;6194891;22;45519;-79
2023/06/23 08:51:08;;;;;;;;;12.00;11.67;;;;;28.18;60.08;101736.25;6198456;22;47080;-78
2023/06/23 08:53:41;;;;;;;;;14.00;14.00;;;;;28.06;59.86;101737.66;6217057;22;45501;-81
2023/06/23 08:56:42;;;;;;;;;14.67;14.33;;;;;28.06;59.74;101725.84;6225486;22;45358;-80
2023/06/23 09:05:17;;;;;;;;;13.00;13.00;;;;;28.33;60.86;101745.63;6071679;23;45509;-80
2023/06/23 09:07:46;;;;;;;;;6.67;6.67;;;;;27.96;60.13;101714.41;6049447;23;45671;-80
2023/06/23 09:10:14;;;;;;;;;16.00;15.00;;;;;28.07;60.30;101725.75;6048499;23;45458;-79
2023/06/23 09:13:18;;;;;;;;;13.00;12.00;;;;;28.35;58.87;101754.63;6071899;23;45504;-81
2023/06/23 09:15:52;;;;;;;;;14.00;10.67;;;;;28.36;60.19;101734.53;6049633;23;45474;-81
2023/06/23 09:18:57;;;;;;;;;8.00;7.00;;;;;28.44;59.37;101725.97;6045398;23;45466;-80
2023/06/23 09:21:33;;;;;;;;;7.00;7.00;;;;;28.66;58.53;101729.56;6071966;23;45707;-79
2023/06/23 09:24:04;;;;;;;;;9.33;8.67;;;;;28.61;57.95;101731.59;6068866;23;45525;-79
2023/06/23 09:26:42;;;;;;;;;10.00;9.00;;;;;28.60;56.65;101748.09;6067370;23;45444;-79
2023/06/23 09:29:25;;;;;;;;;12.67;10.00;;;;;28.58;55.33;101750.00;6066466;23;45446;-80
2023/06/23 09:31:59;;;;;;;;;13.00;11.00;;;;;28.40;55.72;101740.75;6045234;23;45413;-81
2023/06/23 09:34:27;;;;;;;;;12.00;11.33;;;;;28.45;57.91;101745.06;6075669;23;45502;-80
2023/06/23 09:37:04;;;;;;;;;11.00;9.67;;;;;28.57;57.41;101748.25;6152764;23;45535;-79
2023/06/23 09:39:35;;;;;;;;;26.33;26.33;;;;;28.68;57.26;101718.50;6188022;23;44839;-81
2023/06/23 09:42:05;;;;;;;;;3.00;1.00;;;;;28.92;57.57;101747.50;6210689;22;45501;-81
2023/06/23 09:44:36;;;;;;;;;9.33;7.67;;;;;29.01;56.89;101731.59;6254647;22;46845;-81
2023/06/23 09:47:03;;;;;;;;;6.67;6.00;;;;;28.96;56.82;101739.13;6252959;22;45436;-79
2023/06/23 09:49:57;;;;;;;;;5.00;5.00;;;;;28.97;57.46;101735.44;6227352;22;45554;-79
2023/06/23 09:52:24;;;;;;;;;7.00;6.33;;;;;28.75;56.43;101735.56;6243110;22;45505;-81
2023/06/23 09:54:55;;;;;;;;;5.00;5.00;;;;;28.81;56.76;101738.03;6256084;22;45350;-81
2023/06/23 09:57:21;;;;;;;;;9.33;8.67;;;;;28.68;56.96;101741.31;6228734;22;45370;-81
2023/06/23 09:59:57;;;;;;;;;9.00;5.67;;;;;28.84;55.44;101738.75;6228106;22;45405;-78
2023/06/23 10:02:30;;;;;;;;;6.00;6.00;;;;;28.81;52.33;101740.75;6227216;22;44794;-80
2023/06/23 10:05:06;;;;;;;;;7.00;6.00;;;;;28.52;53.43;101730.19;6252385;22;46896;-82
2023/06/23 10:07:32;;;;;;;;;6.00;6.00;;;;;28.31;52.20;101747.53;6228252;22;45335;-79
2023/06/23 10:10:44;;;;;;;;;5.33;4.33;;;;;28.37;52.90;101735.44;6252822;22;45352;-80
2023/06/23 10:13:10;;;;;;;;;7.33;5.67;;;;;28.11;53.88;101724.66;6254197;22;45419;-79
2023/06/23 10:15:46;;;;;;;;;5.75;4.75;;;;;28.09;52.83;101733.91;6227697;22;46916;-80
2023/06/23 10:18:19;;;;;;;;;5.25;5.25;;;;;28.18;53.28;101741.72;6254660;22;45414;-81
2023/06/23 10:20:45;;;;;;;;;4.67;3.33;;;;;28.03;53.90;101742.38;6252026;22;45386;-79
2023/06/23 10:23:13;;;;;;;;;6.00;4.00;;;;;28.11;52.43;101732.00;6225250;22;45550;-79
2023/06/23 10:25:40;;;;;;;;;6.00;5.33;;;;;28.19;51.05;101745.34;6223447;22;45466;-80
2023/06/23 10:28:11;;;;;;;;;6.33;5.33;;;;;28.09;53.75;101729.31;6225621;22;45404;-80
2023/06/23 10:30:39;;;;;;;;;7.67;7.67;;;;;28.23;53.69;101736.03;6223607;22;45352;-79
2023/06/23 10:33:08;;;;;;;;;7.33;5.67;;;;;28.42;54.57;101700.53;6274827;22;45497;-79
2023/06/23 10:35:36;;;;;;;;;9.67;9.33;;;;;28.67;53.29;101719.50;6250133;22;46600;-80
2023/06/23 10:38:42;;;;;;;;;7.67;7.00;;;;;28.88;51.92;101714.84;6248595;22;45000;-79
2023/06/23 10:41:11;;;;;;;;;5.67;5.33;;;;;28.92;52.11;101717.38;6274020;22;45483;-79
2023/06/23 10:43:40;;;;;;;;;16.33;14.33;;;;;29.02;53.22;101711.44;6253589;22;45353;-78
2023/06/23 10:46:06;;;;;;;;;7.67;7.00;;;;;29.04;52.29;101704.06;6253636;22;45708;-78
2023/06/23 10:48:34;;;;;;;;;8.33;7.00;;;;;29.12;52.07;101705.47;6280218;22;44922;-82
2023/06/23 10:51:12;;;;;;;;;6.00;6.00;;;;;29.41;52.46;101713.22;6256224;22;45524;-80
2023/06/23 10:54:07;;;;;;;;;3.50;3.00;;;;;29.50;52.30;101721.00;6257696;22;44841;-80
2023/06/23 10:56:33;;;;;;;;;8.00;6.67;;;;;29.33;51.60;101710.91;6254069;22;46666;-80
2023/06/23 10:59:28;;;;;;;;;10.00;9.00;;;;;29.35;51.64;101716.28;6261681;22;44685;-85
2023/06/23 11:02:07;;;;;;;;;9.33;8.00;;;;;29.40;52.58;101722.44;6262748;22;44736;-84
2023/06/23 11:04:59;;;;;;;;;8.67;7.00;;;;;29.32;51.07;101693.53;6287758;22;44808;-81
2023/06/23 11:07:28;;;;;;;;;6.67;6.67;;;;;29.30;52.05;101713.78;6257169;22;47147;-82
2023/06/23 11:10:05;;;;;;;;;6.67;6.67;;;;;29.29;50.93;101715.63;6254278;22;44792;-82
2023/06/23 11:12:50;;;;;;;;;6.00;6.00;;;;;29.20;48.66;101709.72;6256904;22;45683;-80
2023/06/23 11:15:21;;;;;;;;;6.67;6.67;;;;;29.01;51.63;101687.78;6258552;22;45363;-80
2023/06/23 11:18:36;;;;;;;;;7.33;7.33;;;;;29.27;50.63;101716.69;6256366;22;46643;-80
2023/06/23 11:21:32;;;;;;;;;5.33;5.33;;;;;29.31;50.64;101719.19;6254220;22;45401;-81
2023/06/23 11:24:07;;;;;;;;;5.67;5.67;;;;;29.30;50.06;101706.44;6255771;22;45438;-80
2023/06/23 11:26:37;;;;;;;;;5.00;5.00;;;;;29.22;49.56;101700.44;6278198;22;45735;-80
2023/06/23 11:29:10;;;;;;;;;7.00;7.00;;;;;29.17;47.60;101713.50;6253140;22;45412;-79
2023/06/23 11:32:03;;;;;;;;;7.00;6.00;;;;;29.03;49.08;101707.78;6273997;22;45453;-80
2023/06/23 11:34:47;;;;;;;;;8.33;5.33;;;;;28.92;50.03;101711.91;6255714;22;45336;-80
2023/06/23 11:40:41;;;;;;;;;7.67;7.00;;;;;29.08;50.19;101711.16;6258186;22;45291;-80
2023/06/23 11:43:18;;;;;;;;;6.33;6.33;;;;;29.19;50.81;101697.88;6280932;22;45414;-82
2023/06/23 11:45:54;;;;;;;;;6.33;6.33;;;;;29.40;51.13;101701.38;6278440;22;45767;-81
2023/06/23 11:48:20;;;;;;;;;5.33;5.33;;;;;29.38;50.49;101696.97;6251063;22;45397;-80
2023/06/23 11:51:44;;;;;;;;;5.33;5.33;;;;;29.63;46.70;101702.09;6252847;22;45409;-80
2023/06/23 11:54:13;;;;;;;;;9.67;8.67;;;;;29.57;48.59;101697.81;6252166;22;44681;-79
2023/06/23 11:56:42;;;;;;;;;4.67;4.67;;;;;29.69;48.45;101702.69;6277258;22;45448;-79
2023/06/23 11:59:14;;;;;;;;;4.00;4.00;;;;;29.65;47.64;101694.66;6255194;22;45342;-80
2023/06/23 12:01:40;;;;;;;;;6.00;6.00;;;;;29.62;47.47;101700.31;6249997;22;47009;-80